createdAt,value
2022-10-31T00:03:22.184Z,98203.59
2022-10-31T00:13:25.133Z,98218.41
2022-10-31T00:23:28.447Z,98216.13
2022-10-31T00:33:30.881Z,98211.81
2022-10-31T00:43:33.811Z,98206.59
2022-10-31T00:53:36.970Z,98210.34
2022-10-31T01:03:41.394Z,98207.50
2022-10-31T01:13:44.793Z,98200.41
2022-10-31T01:23:47.557Z,98196.47
2022-10-31T01:33:50.684Z,98191.41
2022-10-31T01:43:58.019Z,98187.31
2022-10-31T01:54:05.039Z,98182.38
2022-10-31T02:04:09.319Z,98183.47
2022-10-31T02:14:15.089Z,98174.25
2022-10-31T02:24:46.637Z,98167.72
2022-10-31T02:35:04.484Z,98156.41
2022-10-31T02:45:10.344Z,98152.91
2022-10-31T02:55:35.200Z,98141.03
2022-10-31T03:05:50.989Z,98132.69
2022-10-31T03:16:06.860Z,98133.81
2022-10-31T03:26:12.849Z,98133.50
2022-10-31T03:36:17.055Z,98126.47
2022-10-31T03:46:20.492Z,98131.53
2022-10-31T03:56:30.572Z,98123.41
2022-10-31T04:06:37.432Z,98119.88
2022-10-31T04:16:44.135Z,98109.84
2022-10-31T04:26:47.053Z,98106.91
2022-10-31T04:36:50.143Z,98100.25
2022-10-31T04:46:53.678Z,98109.41
2022-10-31T04:56:56.800Z,98105.59
2022-10-31T05:06:59.974Z,98110.34
2022-10-31T05:17:02.494Z,98113.78
2022-10-31T05:27:05.193Z,98098.44
2022-10-31T05:37:08.611Z,98097.22
2022-10-31T05:47:12.615Z,98088.53
2022-10-31T05:57:16.457Z,98087.37
2022-10-31T06:07:19.845Z,98080.06
2022-10-31T06:17:24.109Z,98079.75
2022-10-31T06:27:27.109Z,98080.41
2022-10-31T06:37:30.795Z,98067.84
2022-10-31T06:47:38.048Z,98067.13
2022-10-31T06:57:58.962Z,98085.06
2022-10-31T07:08:08.695Z,98100.94
2022-10-31T07:18:13.763Z,98097.41
2022-10-31T07:28:17.271Z,98113.38
2022-10-31T07:38:23.527Z,98117.50
2022-10-31T07:48:30.526Z,98117.59
2022-10-31T07:58:35.160Z,98130.78
2022-10-31T08:08:39.510Z,98134.44
2022-10-31T08:18:49.529Z,98135.09
2022-10-31T08:40:28.511Z,98132.03
2022-10-31T08:50:41.284Z,98103.37
2022-10-31T09:00:47.191Z,98096.59
2022-10-31T09:10:51.377Z,98097.94
2022-10-31T09:21:03.959Z,98090.81
2022-10-31T09:31:15.386Z,98090.19
2022-10-31T09:52:37.470Z,98073.81
2022-10-31T10:02:44.518Z,98072.28
2022-10-31T10:13:24.798Z,98072.44
2022-10-31T10:23:48.053Z,98084.78
2022-10-31T10:34:25.188Z,98074.22
2022-10-31T10:44:58.232Z,98087.97
2022-10-31T10:55:05.242Z,98058.81
2022-10-31T11:05:39.741Z,98048.63
2022-10-31T11:16:01.081Z,98033.63
2022-10-31T11:26:07.831Z,98007.31
2022-10-31T11:36:21.018Z,98007.03
2022-10-31T11:46:37.515Z,97996.63
2022-10-31T11:57:06.720Z,97956.84
2022-10-31T12:07:12.813Z,97926.47
2022-10-31T12:17:41.886Z,97915.56
2022-10-31T12:27:45.023Z,97924.97
2022-10-31T12:38:20.606Z,97905.72
2022-10-31T12:48:42.446Z,97871.12
2022-10-31T12:58:56.204Z,97855.28
2022-10-31T13:09:03.711Z,97823.91
2022-10-31T13:19:12.779Z,97825.09
2022-10-31T13:29:37.986Z,97806.25
2022-10-31T13:40:10.446Z,97791.25
2022-10-31T13:50:27.493Z,97756.94
2022-10-31T14:00:49.066Z,97735.38
2022-10-31T14:11:06.067Z,97721.47
2022-10-31T14:21:31.287Z,97718.16
2022-10-31T14:31:37.934Z,97737.69
2022-10-31T14:42:00.112Z,97718.59
2022-10-31T14:52:08.318Z,97713.94
2022-10-31T15:02:42.233Z,97703.81
2022-10-31T15:12:45.141Z,97688.53
2022-10-31T15:22:49.792Z,97699.66
2022-10-31T15:32:58.746Z,97712.56
2022-10-31T15:43:06.676Z,97716.47
2022-10-31T15:53:32.287Z,97736.06
2022-10-31T16:03:44.535Z,97727.88
2022-10-31T16:14:13.266Z,97751.84
2022-10-31T16:24:24.147Z,97767.53
2022-10-31T16:34:27.314Z,97747.22
2022-10-31T16:44:30.154Z,97761.56
2022-10-31T16:54:32.683Z,97760.44
2022-10-31T17:14:39.116Z,97782.34
2022-10-31T17:24:42.134Z,97805.34
2022-10-31T17:34:44.813Z,97791.91
2022-10-31T17:44:47.910Z,97804.78
2022-10-31T17:54:50.460Z,97813.53
2022-10-31T18:04:53.863Z,97823.66
2022-10-31T18:14:57.109Z,97820.97
2022-10-31T18:25:02.166Z,97804.72
2022-10-31T18:35:06.130Z,97792.84
2022-10-31T18:45:12.080Z,97804.22
2022-10-31T18:55:26.805Z,97796.66
2022-10-31T19:05:29.893Z,97795.88
2022-10-31T19:15:35.014Z,97790.16
2022-10-31T19:25:38.394Z,97779.34
2022-10-31T19:35:41.180Z,97772.28
2022-10-31T19:45:57.965Z,97764.72
2022-10-31T19:56:01.203Z,97760.37
2022-10-31T20:06:05.209Z,97770.94
2022-10-31T20:16:12.103Z,97769.84
2022-10-31T20:26:20.362Z,97756.88
2022-10-31T20:36:23.914Z,97762.00
2022-10-31T20:46:27.984Z,97761.50
2022-10-31T20:56:30.849Z,97768.78
2022-10-31T21:06:33.938Z,97771.78
2022-10-31T21:16:37.087Z,97778.78
2022-10-31T21:26:42.885Z,97771.22
2022-10-31T21:36:45.886Z,97771.22
2022-10-31T21:46:49.608Z,97775.00
2022-10-31T21:56:52.410Z,97780.16
2022-10-31T22:06:56.091Z,97784.75
2022-10-31T22:16:58.462Z,97785.31
2022-10-31T22:27:00.891Z,97771.50
2022-10-31T22:37:03.289Z,97775.81
2022-10-31T22:47:05.563Z,97773.13
2022-10-31T22:57:07.975Z,97754.41
2022-10-31T23:07:13.520Z,97747.91
2022-10-31T23:17:20.336Z,97758.19
2022-10-31T23:27:24.553Z,97753.84
2022-10-31T23:37:29.627Z,97748.44
2022-10-31T23:47:32.045Z,97760.63
2022-10-31T23:57:34.396Z,97751.16
